sensor_id;sensor_type;location;lat;lon;timestamp;temperature;humidity
51579;DHT22;47998;53.242;6.386;2022-10-15T00:01:07;12.20;99.90
51579;DHT22;47998;53.242;6.386;2022-10-15T00:03:38;12.20;99.90
51579;DHT22;47998;53.242;6.386;2022-10-15T00:06:06;12.20;99.90
51579;DHT22;47998;53.242;6.386;2022-10-15T00:08:32;12.20;99.90
51579;DHT22;47998;53.242;6.386;2022-10-15T00:11:11;12.20;99.90
51579;DHT22;47998;53.242;6.386;2022-10-15T00:13:37;12.20;99.90
51579;DHT22;47998;53.242;6.386;2022-10-15T00:16:06;12.20;99.90
51579;DHT22;47998;53.242;6.386;2022-10-15T00:18:31;12.20;99.90
51579;DHT22;47998;53.242;6.386;2022-10-15T00:20:57;12.20;99.90
51579;DHT22;47998;53.242;6.386;2022-10-15T00:23:23;12.20;99.90
51579;DHT22;47998;53.242;6.386;2022-10-15T00:25:49;12.20;99.90
51579;DHT22;47998;53.242;6.386;2022-10-15T00:28:14;12.20;99.90
51579;DHT22;47998;53.242;6.386;2022-10-15T00:30:40;12.20;99.90
51579;DHT22;47998;53.242;6.386;2022-10-15T00:33:06;12.20;99.90
51579;DHT22;47998;53.242;6.386;2022-10-15T00:35:31;12.20;99.90
51579;DHT22;47998;53.242;6.386;2022-10-15T00:37:57;12.20;99.90
51579;DHT22;47998;53.242;6.386;2022-10-15T00:40:23;12.20;99.90
51579;DHT22;47998;53.242;6.386;2022-10-15T00:42:48;12.20;99.90
51579;DHT22;47998;53.242;6.386;2022-10-15T00:45:15;12.20;99.90
51579;DHT22;47998;53.242;6.386;2022-10-15T00:47:49;12.20;99.90
51579;DHT22;47998;53.242;6.386;2022-10-15T00:50:18;12.20;99.90
51579;DHT22;47998;53.242;6.386;2022-10-15T00:55:26;12.20;99.90
51579;DHT22;47998;53.242;6.386;2022-10-15T00:57:53;12.20;99.90
51579;DHT22;47998;53.242;6.386;2022-10-15T01:00:20;12.20;99.90
51579;DHT22;47998;53.242;6.386;2022-10-15T01:02:46;12.10;99.90
51579;DHT22;47998;53.242;6.386;2022-10-15T01:05:14;12.10;99.90
51579;DHT22;47998;53.242;6.386;2022-10-15T01:07:41;12.20;99.90
51579;DHT22;47998;53.242;6.386;2022-10-15T01:10:08;12.10;99.90
51579;DHT22;47998;53.242;6.386;2022-10-15T01:15:32;12.20;99.90
51579;DHT22;47998;53.242;6.386;2022-10-15T01:18:06;12.10;99.90
51579;DHT22;47998;53.242;6.386;2022-10-15T01:29:25;12.20;99.90
51579;DHT22;47998;53.242;6.386;2022-10-15T01:32:11;12.20;99.90
51579;DHT22;47998;53.242;6.386;2022-10-15T01:35:14;12.20;99.90
51579;DHT22;47998;53.242;6.386;2022-10-15T01:37:47;12.20;99.90
51579;DHT22;47998;53.242;6.386;2022-10-15T01:40:33;12.30;99.90
51579;DHT22;47998;53.242;6.386;2022-10-15T01:43:03;12.20;99.90
51579;DHT22;47998;53.242;6.386;2022-10-15T01:45:41;12.20;99.90
51579;DHT22;47998;53.242;6.386;2022-10-15T01:48:10;12.20;99.90
51579;DHT22;47998;53.242;6.386;2022-10-15T01:50:39;12.20;99.90
51579;DHT22;47998;53.242;6.386;2022-10-15T01:53:08;12.20;99.90
51579;DHT22;47998;53.242;6.386;2022-10-15T01:55:36;12.20;99.90
51579;DHT22;47998;53.242;6.386;2022-10-15T01:58:06;12.10;99.90
51579;DHT22;47998;53.242;6.386;2022-10-15T02:00:34;12.10;99.90
51579;DHT22;47998;53.242;6.386;2022-10-15T02:03:00;12.10;99.90
51579;DHT22;47998;53.242;6.386;2022-10-15T02:05:31;12.00;99.90
51579;DHT22;47998;53.242;6.386;2022-10-15T02:18:39;12.00;99.90
51579;DHT22;47998;53.242;6.386;2022-10-15T02:21:11;11.90;99.90
51579;DHT22;47998;53.242;6.386;2022-10-15T02:26:43;11.90;99.90
51579;DHT22;47998;53.242;6.386;2022-10-15T02:29:11;11.90;99.90
51579;DHT22;47998;53.242;6.386;2022-10-15T02:31:40;11.90;99.90
51579;DHT22;47998;53.242;6.386;2022-10-15T02:34:10;11.90;99.90
51579;DHT22;47998;53.242;6.386;2022-10-15T02:36:41;12.00;99.90
51579;DHT22;47998;53.242;6.386;2022-10-15T02:39:11;11.90;99.90
51579;DHT22;47998;53.242;6.386;2022-10-15T02:41:37;12.00;99.90
51579;DHT22;47998;53.242;6.386;2022-10-15T02:44:04;11.90;99.90
51579;DHT22;47998;53.242;6.386;2022-10-15T02:46:30;11.90;99.90
51579;DHT22;47998;53.242;6.386;2022-10-15T02:48:56;11.90;99.90
51579;DHT22;47998;53.242;6.386;2022-10-15T02:51:22;11.90;99.90
51579;DHT22;47998;53.242;6.386;2022-10-15T02:53:47;11.90;99.90
51579;DHT22;47998;53.242;6.386;2022-10-15T02:56:13;11.90;99.90
51579;DHT22;47998;53.242;6.386;2022-10-15T02:58:40;11.90;99.90
51579;DHT22;47998;53.242;6.386;2022-10-15T03:01:05;11.80;99.90
51579;DHT22;47998;53.242;6.386;2022-10-15T03:03:31;11.80;99.90
51579;DHT22;47998;53.242;6.386;2022-10-15T03:05:57;11.80;99.90
51579;DHT22;47998;53.242;6.386;2022-10-15T03:08:22;11.80;99.90
51579;DHT22;47998;53.242;6.386;2022-10-15T03:10:48;11.80;99.90
51579;DHT22;47998;53.242;6.386;2022-10-15T03:13:14;11.70;99.90
51579;DHT22;47998;53.242;6.386;2022-10-15T03:15:40;11.70;99.90
51579;DHT22;47998;53.242;6.386;2022-10-15T03:18:06;11.70;99.90
51579;DHT22;47998;53.242;6.386;2022-10-15T03:20:32;11.60;99.90
51579;DHT22;47998;53.242;6.386;2022-10-15T03:22:58;11.60;99.90
51579;DHT22;47998;53.242;6.386;2022-10-15T03:25:24;11.70;99.90
51579;DHT22;47998;53.242;6.386;2022-10-15T03:27:50;11.70;99.90
51579;DHT22;47998;53.242;6.386;2022-10-15T03:30:18;11.70;99.90
51579;DHT22;47998;53.242;6.386;2022-10-15T03:32:43;11.70;99.90
51579;DHT22;47998;53.242;6.386;2022-10-15T03:35:09;11.70;99.90
51579;DHT22;47998;53.242;6.386;2022-10-15T03:37:35;11.80;99.90
51579;DHT22;47998;53.242;6.386;2022-10-15T03:40:01;11.70;99.90
51579;DHT22;47998;53.242;6.386;2022-10-15T03:42:26;11.70;99.90
51579;DHT22;47998;53.242;6.386;2022-10-15T03:44:52;11.80;99.90
51579;DHT22;47998;53.242;6.386;2022-10-15T03:47:18;11.70;99.90
51579;DHT22;47998;53.242;6.386;2022-10-15T03:49:43;11.80;99.90
51579;DHT22;47998;53.242;6.386;2022-10-15T03:52:09;11.80;99.90
51579;DHT22;47998;53.242;6.386;2022-10-15T03:54:35;11.70;99.90
51579;DHT22;47998;53.242;6.386;2022-10-15T03:57:00;11.70;99.90
51579;DHT22;47998;53.242;6.386;2022-10-15T03:59:26;11.80;99.90
51579;DHT22;47998;53.242;6.386;2022-10-15T04:01:52;11.80;99.90
51579;DHT22;47998;53.242;6.386;2022-10-15T04:04:17;11.70;99.90
51579;DHT22;47998;53.242;6.386;2022-10-15T04:06:43;11.80;99.90
51579;DHT22;47998;53.242;6.386;2022-10-15T04:09:12;11.80;99.90
51579;DHT22;47998;53.242;6.386;2022-10-15T04:11:38;11.80;99.90
51579;DHT22;47998;53.242;6.386;2022-10-15T04:14:05;11.80;99.90
51579;DHT22;47998;53.242;6.386;2022-10-15T04:16:30;11.70;99.90
51579;DHT22;47998;53.242;6.386;2022-10-15T04:18:56;11.70;99.90
51579;DHT22;47998;53.242;6.386;2022-10-15T04:21:24;11.80;99.90
51579;DHT22;47998;53.242;6.386;2022-10-15T04:23:49;11.80;99.90
51579;DHT22;47998;53.242;6.386;2022-10-15T04:26:15;11.70;99.90
51579;DHT22;47998;53.242;6.386;2022-10-15T04:28:41;11.70;99.90
51579;DHT22;47998;53.242;6.386;2022-10-15T04:31:07;11.80;99.90
51579;DHT22;47998;53.242;6.386;2022-10-15T04:33:33;11.80;99.90
51579;DHT22;47998;53.242;6.386;2022-10-15T04:36:01;11.80;99.90
51579;DHT22;47998;53.242;6.386;2022-10-15T04:38:27;11.80;99.90
51579;DHT22;47998;53.242;6.386;2022-10-15T04:41:10;11.80;99.90
51579;DHT22;47998;53.242;6.386;2022-10-15T04:43:36;11.80;99.90
51579;DHT22;47998;53.242;6.386;2022-10-15T04:46:05;11.80;99.90
51579;DHT22;47998;53.242;6.386;2022-10-15T04:48:33;11.70;99.90
51579;DHT22;47998;53.242;6.386;2022-10-15T04:51:11;11.80;99.90
51579;DHT22;47998;53.242;6.386;2022-10-15T04:53:37;11.80;99.90
51579;DHT22;47998;53.242;6.386;2022-10-15T04:56:06;11.80;99.90
51579;DHT22;47998;53.242;6.386;2022-10-15T04:58:32;11.70;99.90
51579;DHT22;47998;53.242;6.386;2022-10-15T05:01:03;11.70;99.90
51579;DHT22;47998;53.242;6.386;2022-10-15T05:03:29;11.70;99.90
51579;DHT22;47998;53.242;6.386;2022-10-15T05:06:03;11.70;99.90
51579;DHT22;47998;53.242;6.386;2022-10-15T05:08:30;11.80;99.90
51579;DHT22;47998;53.242;6.386;2022-10-15T05:11:21;11.70;99.90
51579;DHT22;47998;53.242;6.386;2022-10-15T05:13:48;11.70;99.90
51579;DHT22;47998;53.242;6.386;2022-10-15T05:16:17;11.70;99.90
51579;DHT22;47998;53.242;6.386;2022-10-15T05:18:45;11.60;99.90
51579;DHT22;47998;53.242;6.386;2022-10-15T05:21:12;11.70;99.90
51579;DHT22;47998;53.242;6.386;2022-10-15T05:23:38;11.70;99.90
51579;DHT22;47998;53.242;6.386;2022-10-15T05:26:07;11.70;99.90
51579;DHT22;47998;53.242;6.386;2022-10-15T05:28:33;11.70;99.90
51579;DHT22;47998;53.242;6.386;2022-10-15T05:31:07;11.70;99.90
51579;DHT22;47998;53.242;6.386;2022-10-15T05:33:34;11.70;99.90
51579;DHT22;47998;53.242;6.386;2022-10-15T05:36:19;11.60;99.90
51579;DHT22;47998;53.242;6.386;2022-10-15T05:38:47;11.70;99.90
51579;DHT22;47998;53.242;6.386;2022-10-15T05:41:14;11.70;99.90
51579;DHT22;47998;53.242;6.386;2022-10-15T05:43:40;11.60;99.90
51579;DHT22;47998;53.242;6.386;2022-10-15T05:46:07;11.60;99.90
51579;DHT22;47998;53.242;6.386;2022-10-15T05:48:32;11.60;99.90
51579;DHT22;47998;53.242;6.386;2022-10-15T05:51:06;11.60;99.90
51579;DHT22;47998;53.242;6.386;2022-10-15T05:53:33;11.60;99.90
51579;DHT22;47998;53.242;6.386;2022-10-15T05:55:59;11.60;99.90
51579;DHT22;47998;53.242;6.386;2022-10-15T05:58:28;11.50;99.90
51579;DHT22;47998;53.242;6.386;2022-10-15T06:00:56;11.60;99.90
51579;DHT22;47998;53.242;6.386;2022-10-15T06:03:22;11.50;99.90
51579;DHT22;47998;53.242;6.386;2022-10-15T06:05:48;11.60;99.90
51579;DHT22;47998;53.242;6.386;2022-10-15T06:08:15;11.50;99.90
51579;DHT22;47998;53.242;6.386;2022-10-15T06:10:41;11.50;99.90
51579;DHT22;47998;53.242;6.386;2022-10-15T06:13:07;11.60;99.90
51579;DHT22;47998;53.242;6.386;2022-10-15T06:15:33;11.60;99.90
51579;DHT22;47998;53.242;6.386;2022-10-15T06:17:59;11.60;99.90
51579;DHT22;47998;53.242;6.386;2022-10-15T06:20:26;11.60;99.90
51579;DHT22;47998;53.242;6.386;2022-10-15T06:22:56;11.60;99.90
51579;DHT22;47998;53.242;6.386;2022-10-15T06:25:23;11.60;99.90
51579;DHT22;47998;53.242;6.386;2022-10-15T06:27:48;11.60;99.90
51579;DHT22;47998;53.242;6.386;2022-10-15T06:30:14;11.50;99.90
51579;DHT22;47998;53.242;6.386;2022-10-15T06:32:49;11.60;99.90
51579;DHT22;47998;53.242;6.386;2022-10-15T06:35:16;11.70;99.90
51579;DHT22;47998;53.242;6.386;2022-10-15T06:37:42;11.70;99.90
51579;DHT22;47998;53.242;6.386;2022-10-15T06:40:09;11.70;99.90
51579;DHT22;47998;53.242;6.386;2022-10-15T06:42:35;11.70;99.90
51579;DHT22;47998;53.242;6.386;2022-10-15T06:45:00;11.70;99.90
51579;DHT22;47998;53.242;6.386;2022-10-15T06:47:26;11.80;99.90
51579;DHT22;47998;53.242;6.386;2022-10-15T06:49:52;11.70;99.90
51579;DHT22;47998;53.242;6.386;2022-10-15T06:52:17;11.70;99.90
51579;DHT22;47998;53.242;6.386;2022-10-15T06:54:43;11.70;99.90
51579;DHT22;47998;53.242;6.386;2022-10-15T06:57:09;11.80;99.90
51579;DHT22;47998;53.242;6.386;2022-10-15T06:59:35;11.80;99.90
51579;DHT22;47998;53.242;6.386;2022-10-15T07:02:00;11.80;99.90
51579;DHT22;47998;53.242;6.386;2022-10-15T07:04:26;11.80;99.90
51579;DHT22;47998;53.242;6.386;2022-10-15T07:06:52;11.80;99.90
51579;DHT22;47998;53.242;6.386;2022-10-15T07:09:17;11.80;99.90
51579;DHT22;47998;53.242;6.386;2022-10-15T07:11:43;11.70;99.90
51579;DHT22;47998;53.242;6.386;2022-10-15T07:14:09;11.70;99.90
51579;DHT22;47998;53.242;6.386;2022-10-15T07:16:35;11.80;99.90
51579;DHT22;47998;53.242;6.386;2022-10-15T07:19:02;11.80;99.90
51579;DHT22;47998;53.242;6.386;2022-10-15T07:21:27;11.90;99.90
51579;DHT22;47998;53.242;6.386;2022-10-15T07:23:53;12.00;99.90
51579;DHT22;47998;53.242;6.386;2022-10-15T07:26:19;12.00;99.90
51579;DHT22;47998;53.242;6.386;2022-10-15T07:28:44;12.10;99.90
51579;DHT22;47998;53.242;6.386;2022-10-15T07:31:10;12.10;99.90
51579;DHT22;47998;53.242;6.386;2022-10-15T07:33:36;12.00;99.90
51579;DHT22;47998;53.242;6.386;2022-10-15T07:36:07;12.20;99.90
51579;DHT22;47998;53.242;6.386;2022-10-15T07:38:34;12.20;99.90
51579;DHT22;47998;53.242;6.386;2022-10-15T07:41:01;12.20;99.90
51579;DHT22;47998;53.242;6.386;2022-10-15T07:43:27;12.20;99.90
51579;DHT22;47998;53.242;6.386;2022-10-15T07:45:54;12.20;99.90
51579;DHT22;47998;53.242;6.386;2022-10-15T07:48:19;12.10;99.90
51579;DHT22;47998;53.242;6.386;2022-10-15T07:50:45;12.10;99.90
51579;DHT22;47998;53.242;6.386;2022-10-15T07:53:11;12.10;99.90
51579;DHT22;47998;53.242;6.386;2022-10-15T07:55:37;12.20;99.90
51579;DHT22;47998;53.242;6.386;2022-10-15T07:58:03;12.30;99.90
51579;DHT22;47998;53.242;6.386;2022-10-15T08:00:32;12.30;99.90
51579;DHT22;47998;53.242;6.386;2022-10-15T08:02:58;12.40;99.90
51579;DHT22;47998;53.242;6.386;2022-10-15T08:05:24;12.40;99.90
51579;DHT22;47998;53.242;6.386;2022-10-15T08:07:49;12.60;99.90
51579;DHT22;47998;53.242;6.386;2022-10-15T08:10:15;12.60;99.90
51579;DHT22;47998;53.242;6.386;2022-10-15T08:12:43;12.70;99.90
51579;DHT22;47998;53.242;6.386;2022-10-15T08:15:09;12.80;99.90
51579;DHT22;47998;53.242;6.386;2022-10-15T08:17:35;12.80;99.90
51579;DHT22;47998;53.242;6.386;2022-10-15T08:20:01;12.90;99.90
51579;DHT22;47998;53.242;6.386;2022-10-15T08:22:26;12.80;99.90
51579;DHT22;47998;53.242;6.386;2022-10-15T08:24:52;12.90;99.90
51579;DHT22;47998;53.242;6.386;2022-10-15T08:27:18;12.80;99.90
51579;DHT22;47998;53.242;6.386;2022-10-15T08:29:43;12.90;99.90
51579;DHT22;47998;53.242;6.386;2022-10-15T08:32:11;12.90;99.90
51579;DHT22;47998;53.242;6.386;2022-10-15T08:34:37;13.00;99.90
51579;DHT22;47998;53.242;6.386;2022-10-15T08:37:02;13.00;99.90
51579;DHT22;47998;53.242;6.386;2022-10-15T08:39:28;13.00;99.90
51579;DHT22;47998;53.242;6.386;2022-10-15T08:41:57;13.00;99.90
51579;DHT22;47998;53.242;6.386;2022-10-15T08:44:31;13.00;99.90
51579;DHT22;47998;53.242;6.386;2022-10-15T08:47:12;13.10;99.90
51579;DHT22;47998;53.242;6.386;2022-10-15T08:49:49;13.10;99.90
51579;DHT22;47998;53.242;6.386;2022-10-15T08:54:47;13.10;99.90
51579;DHT22;47998;53.242;6.386;2022-10-15T08:57:31;13.10;99.90
51579;DHT22;47998;53.242;6.386;2022-10-15T09:00:15;13.10;99.90
51579;DHT22;47998;53.242;6.386;2022-10-15T09:05:48;13.20;99.90
51579;DHT22;47998;53.242;6.386;2022-10-15T09:13:47;13.30;99.90
51579;DHT22;47998;53.242;6.386;2022-10-15T09:18:45;13.40;99.90
51579;DHT22;47998;53.242;6.386;2022-10-15T09:21:12;13.40;99.90
51579;DHT22;47998;53.242;6.386;2022-10-15T09:23:38;13.40;99.90
51579;DHT22;47998;53.242;6.386;2022-10-15T09:26:15;13.40;99.90
51579;DHT22;47998;53.242;6.386;2022-10-15T09:29:14;13.40;99.90
51579;DHT22;47998;53.242;6.386;2022-10-15T09:32:02;13.30;99.90
51579;DHT22;47998;53.242;6.386;2022-10-15T09:34:57;13.30;99.90
51579;DHT22;47998;53.242;6.386;2022-10-15T09:37:35;13.20;99.90
51579;DHT22;47998;53.242;6.386;2022-10-15T09:43:05;13.10;99.90
51579;DHT22;47998;53.242;6.386;2022-10-15T09:45:31;13.00;99.90
51579;DHT22;47998;53.242;6.386;2022-10-15T09:47:59;13.00;99.90
51579;DHT22;47998;53.242;6.386;2022-10-15T09:50:38;13.00;99.90
51579;DHT22;47998;53.242;6.386;2022-10-15T09:53:17;13.00;99.90
51579;DHT22;47998;53.242;6.386;2022-10-15T09:55:52;13.10;99.90
51579;DHT22;47998;53.242;6.386;2022-10-15T09:58:24;13.10;99.90
51579;DHT22;47998;53.242;6.386;2022-10-15T10:03:29;13.10;99.90
51579;DHT22;47998;53.242;6.386;2022-10-15T10:06:05;13.10;99.90
51579;DHT22;47998;53.242;6.386;2022-10-15T10:08:37;13.10;99.90
51579;DHT22;47998;53.242;6.386;2022-10-15T10:11:07;13.00;99.90
51579;DHT22;47998;53.242;6.386;2022-10-15T10:13:40;13.00;99.90
51579;DHT22;47998;53.242;6.386;2022-10-15T10:16:10;12.90;99.90
51579;DHT22;47998;53.242;6.386;2022-10-15T10:18:36;12.80;99.90
51579;DHT22;47998;53.242;6.386;2022-10-15T10:21:05;13.00;99.90
51579;DHT22;47998;53.242;6.386;2022-10-15T10:23:36;13.10;99.90
51579;DHT22;47998;53.242;6.386;2022-10-15T10:26:05;13.20;99.90
51579;DHT22;47998;53.242;6.386;2022-10-15T10:28:36;13.30;99.90
51579;DHT22;47998;53.242;6.386;2022-10-15T10:31:06;13.40;99.90
51579;DHT22;47998;53.242;6.386;2022-10-15T10:33:46;13.60;99.90
51579;DHT22;47998;53.242;6.386;2022-10-15T10:36:27;13.90;99.90
51579;DHT22;47998;53.242;6.386;2022-10-15T10:41:56;14.20;99.90
51579;DHT22;47998;53.242;6.386;2022-10-15T10:44:40;14.30;99.90
51579;DHT22;47998;53.242;6.386;2022-10-15T10:52:27;14.60;99.90
51579;DHT22;47998;53.242;6.386;2022-10-15T10:55:18;14.60;99.90
51579;DHT22;47998;53.242;6.386;2022-10-15T11:00:24;14.60;99.90
51579;DHT22;47998;53.242;6.386;2022-10-15T11:02:54;14.60;99.90
51579;DHT22;47998;53.242;6.386;2022-10-15T11:05:32;14.60;99.90
51579;DHT22;47998;53.242;6.386;2022-10-15T11:10:34;14.50;99.90
51579;DHT22;47998;53.242;6.386;2022-10-15T11:21:26;14.50;99.90
51579;DHT22;47998;53.242;6.386;2022-10-15T11:24:19;14.70;99.90
51579;DHT22;47998;53.242;6.386;2022-10-15T11:29:35;14.80;99.90
51579;DHT22;47998;53.242;6.386;2022-10-15T11:32:19;14.90;99.90
51579;DHT22;47998;53.242;6.386;2022-10-15T11:35:13;14.90;99.90
51579;DHT22;47998;53.242;6.386;2022-10-15T11:40:31;15.00;99.90
51579;DHT22;47998;53.242;6.386;2022-10-15T11:43:10;14.90;99.90
51579;DHT22;47998;53.242;6.386;2022-10-15T11:46:02;15.00;99.90
51579;DHT22;47998;53.242;6.386;2022-10-15T11:48:42;15.00;99.90
51579;DHT22;47998;53.242;6.386;2022-10-15T11:56:59;15.50;99.90
51579;DHT22;47998;53.242;6.386;2022-10-15T11:59:34;15.60;99.90
51579;DHT22;47998;53.242;6.386;2022-10-15T12:04:58;15.90;99.90
51579;DHT22;47998;53.242;6.386;2022-10-15T12:07:32;16.00;99.90
51579;DHT22;47998;53.242;6.386;2022-10-15T12:20:22;16.10;99.90
51579;DHT22;47998;53.242;6.386;2022-10-15T12:30:32;15.30;99.90
51579;DHT22;47998;53.242;6.386;2022-10-15T12:32:59;15.20;99.90
51579;DHT22;47998;53.242;6.386;2022-10-15T12:35:36;15.20;99.90
51579;DHT22;47998;53.242;6.386;2022-10-15T12:38:18;15.30;99.90
51579;DHT22;47998;53.242;6.386;2022-10-15T12:40:45;15.40;99.90
51579;DHT22;47998;53.242;6.386;2022-10-15T12:43:14;15.40;99.90
51579;DHT22;47998;53.242;6.386;2022-10-15T12:45:51;15.40;99.90
51579;DHT22;47998;53.242;6.386;2022-10-15T12:48:44;15.40;99.90
51579;DHT22;47998;53.242;6.386;2022-10-15T12:53:50;15.40;99.90
51579;DHT22;47998;53.242;6.386;2022-10-15T12:58:43;15.30;99.90
51579;DHT22;47998;53.242;6.386;2022-10-15T13:09:21;15.10;99.90
51579;DHT22;47998;53.242;6.386;2022-10-15T13:11:50;15.10;99.90
51579;DHT22;47998;53.242;6.386;2022-10-15T13:14:32;15.10;99.90
51579;DHT22;47998;53.242;6.386;2022-10-15T13:17:04;15.00;99.90
51579;DHT22;47998;53.242;6.386;2022-10-15T13:20:00;15.00;99.90
51579;DHT22;47998;53.242;6.386;2022-10-15T13:22:32;14.90;99.90
51579;DHT22;47998;53.242;6.386;2022-10-15T13:24:58;14.80;99.90
51579;DHT22;47998;53.242;6.386;2022-10-15T13:32:23;14.60;99.90
51579;DHT22;47998;53.242;6.386;2022-10-15T13:34:49;14.60;99.90
51579;DHT22;47998;53.242;6.386;2022-10-15T13:37:30;14.60;99.90
51579;DHT22;47998;53.242;6.386;2022-10-15T13:39:57;14.60;99.90
51579;DHT22;47998;53.242;6.386;2022-10-15T13:42:24;14.50;99.90
51579;DHT22;47998;53.242;6.386;2022-10-15T13:45:02;14.50;99.90
51579;DHT22;47998;53.242;6.386;2022-10-15T13:47:29;14.40;99.90
51579;DHT22;47998;53.242;6.386;2022-10-15T13:50:18;14.40;99.90
51579;DHT22;47998;53.242;6.386;2022-10-15T13:55:32;14.30;99.90
51579;DHT22;47998;53.242;6.386;2022-10-15T13:58:35;14.30;99.90
51579;DHT22;47998;53.242;6.386;2022-10-15T14:01:15;14.30;99.90
51579;DHT22;47998;53.242;6.386;2022-10-15T14:03:52;14.30;99.90
51579;DHT22;47998;53.242;6.386;2022-10-15T14:08:45;14.30;99.90
51579;DHT22;47998;53.242;6.386;2022-10-15T14:11:12;14.20;99.90
51579;DHT22;47998;53.242;6.386;2022-10-15T14:14:25;14.20;99.90
51579;DHT22;47998;53.242;6.386;2022-10-15T14:16:50;14.20;99.90
51579;DHT22;47998;53.242;6.386;2022-10-15T14:19:20;14.20;99.90
51579;DHT22;47998;53.242;6.386;2022-10-15T14:21:51;14.30;99.90
51579;DHT22;47998;53.242;6.386;2022-10-15T14:24:22;14.20;99.90
51579;DHT22;47998;53.242;6.386;2022-10-15T14:26:49;14.20;99.90
51579;DHT22;47998;53.242;6.386;2022-10-15T14:29:22;14.20;99.90
51579;DHT22;47998;53.242;6.386;2022-10-15T14:31:49;14.30;99.90
51579;DHT22;47998;53.242;6.386;2022-10-15T14:36:58;14.30;99.90
51579;DHT22;47998;53.242;6.386;2022-10-15T14:39:35;14.30;99.90
51579;DHT22;47998;53.242;6.386;2022-10-15T14:42:05;14.40;99.90
51579;DHT22;47998;53.242;6.386;2022-10-15T14:44:43;14.40;99.90
51579;DHT22;47998;53.242;6.386;2022-10-15T14:47:22;14.40;99.90
51579;DHT22;47998;53.242;6.386;2022-10-15T14:49:59;14.40;99.90
51579;DHT22;47998;53.242;6.386;2022-10-15T14:52:27;14.40;99.90
51579;DHT22;47998;53.242;6.386;2022-10-15T14:55:04;14.40;99.90
51579;DHT22;47998;53.242;6.386;2022-10-15T14:57:35;14.50;99.90
51579;DHT22;47998;53.242;6.386;2022-10-15T15:00:16;14.40;99.90
51579;DHT22;47998;53.242;6.386;2022-10-15T15:02:45;14.50;99.90
51579;DHT22;47998;53.242;6.386;2022-10-15T15:07:38;14.50;99.90
51579;DHT22;47998;53.242;6.386;2022-10-15T15:10:06;14.40;99.90
51579;DHT22;47998;53.242;6.386;2022-10-15T15:12:32;14.50;99.90
51579;DHT22;47998;53.242;6.386;2022-10-15T15:14:58;14.50;99.90
51579;DHT22;47998;53.242;6.386;2022-10-15T15:17:26;14.40;99.90
51579;DHT22;47998;53.242;6.386;2022-10-15T15:19:53;14.50;99.90
51579;DHT22;47998;53.242;6.386;2022-10-15T15:22:29;14.60;99.90
51579;DHT22;47998;53.242;6.386;2022-10-15T15:24:57;14.60;99.90
51579;DHT22;47998;53.242;6.386;2022-10-15T15:27:26;14.70;99.90
51579;DHT22;47998;53.242;6.386;2022-10-15T15:29:53;14.70;99.90
51579;DHT22;47998;53.242;6.386;2022-10-15T15:32:20;14.80;99.90
51579;DHT22;47998;53.242;6.386;2022-10-15T15:34:47;14.80;99.90
51579;DHT22;47998;53.242;6.386;2022-10-15T15:37:18;14.90;99.90
51579;DHT22;47998;53.242;6.386;2022-10-15T15:39:44;14.90;99.90
51579;DHT22;47998;53.242;6.386;2022-10-15T15:42:15;15.00;99.90
51579;DHT22;47998;53.242;6.386;2022-10-15T15:44:42;15.00;99.90
51579;DHT22;47998;53.242;6.386;2022-10-15T15:47:08;14.90;99.90
51579;DHT22;47998;53.242;6.386;2022-10-15T15:49:34;14.80;99.90
51579;DHT22;47998;53.242;6.386;2022-10-15T15:52:00;14.70;99.90
51579;DHT22;47998;53.242;6.386;2022-10-15T15:54:26;14.60;99.90
51579;DHT22;47998;53.242;6.386;2022-10-15T15:56:52;14.50;99.90
51579;DHT22;47998;53.242;6.386;2022-10-15T15:59:18;14.50;99.90
51579;DHT22;47998;53.242;6.386;2022-10-15T16:01:44;14.50;99.90
51579;DHT22;47998;53.242;6.386;2022-10-15T16:04:11;14.40;99.90
51579;DHT22;47998;53.242;6.386;2022-10-15T16:06:38;14.40;99.90
51579;DHT22;47998;53.242;6.386;2022-10-15T16:09:03;14.30;99.90
51579;DHT22;47998;53.242;6.386;2022-10-15T16:11:31;14.20;99.90
51579;DHT22;47998;53.242;6.386;2022-10-15T16:13:57;14.20;99.90
51579;DHT22;47998;53.242;6.386;2022-10-15T16:16:23;14.20;99.90
51579;DHT22;47998;53.242;6.386;2022-10-15T16:18:49;14.20;99.90
51579;DHT22;47998;53.242;6.386;2022-10-15T16:21:25;14.20;99.90
51579;DHT22;47998;53.242;6.386;2022-10-15T16:23:52;14.20;99.90
51579;DHT22;47998;53.242;6.386;2022-10-15T16:26:18;14.20;99.90
51579;DHT22;47998;53.242;6.386;2022-10-15T16:28:44;14.20;99.90
51579;DHT22;47998;53.242;6.386;2022-10-15T16:31:18;14.20;99.90
51579;DHT22;47998;53.242;6.386;2022-10-15T16:33:44;14.10;99.90
51579;DHT22;47998;53.242;6.386;2022-10-15T16:36:10;14.10;99.90
51579;DHT22;47998;53.242;6.386;2022-10-15T16:38:41;14.00;99.90
51579;DHT22;47998;53.242;6.386;2022-10-15T16:41:08;13.90;99.90
51579;DHT22;47998;53.242;6.386;2022-10-15T16:43:35;13.90;99.90
51579;DHT22;47998;53.242;6.386;2022-10-15T16:46:01;13.80;99.90
51579;DHT22;47998;53.242;6.386;2022-10-15T16:48:30;13.80;99.90
51579;DHT22;47998;53.242;6.386;2022-10-15T16:51:05;13.80;99.90
51579;DHT22;47998;53.242;6.386;2022-10-15T16:53:32;13.80;99.90
51579;DHT22;47998;53.242;6.386;2022-10-15T16:56:00;13.70;99.90
51579;DHT22;47998;53.242;6.386;2022-10-15T16:58:26;13.70;99.90
51579;DHT22;47998;53.242;6.386;2022-10-15T17:00:52;13.70;99.90
51579;DHT22;47998;53.242;6.386;2022-10-15T17:03:18;13.70;99.90
51579;DHT22;47998;53.242;6.386;2022-10-15T17:05:44;13.60;99.90
51579;DHT22;47998;53.242;6.386;2022-10-15T17:08:09;13.60;99.90
51579;DHT22;47998;53.242;6.386;2022-10-15T17:10:41;13.60;99.90
51579;DHT22;47998;53.242;6.386;2022-10-15T17:13:07;13.50;99.90
51579;DHT22;47998;53.242;6.386;2022-10-15T17:15:33;13.50;99.90
51579;DHT22;47998;53.242;6.386;2022-10-15T17:17:58;13.50;99.90
51579;DHT22;47998;53.242;6.386;2022-10-15T17:20:24;13.50;99.90
51579;DHT22;47998;53.242;6.386;2022-10-15T17:22:50;13.50;99.90
51579;DHT22;47998;53.242;6.386;2022-10-15T17:25:16;13.50;99.90
51579;DHT22;47998;53.242;6.386;2022-10-15T17:27:44;13.50;99.90
51579;DHT22;47998;53.242;6.386;2022-10-15T17:30:10;13.50;99.90
51579;DHT22;47998;53.242;6.386;2022-10-15T17:32:35;13.50;99.90
51579;DHT22;47998;53.242;6.386;2022-10-15T17:35:01;13.50;99.90
51579;DHT22;47998;53.242;6.386;2022-10-15T17:37:27;13.50;99.90
51579;DHT22;47998;53.242;6.386;2022-10-15T17:39:52;13.50;99.90
51579;DHT22;47998;53.242;6.386;2022-10-15T17:42:18;13.40;99.90
51579;DHT22;47998;53.242;6.386;2022-10-15T17:44:46;13.40;99.90
51579;DHT22;47998;53.242;6.386;2022-10-15T17:47:11;13.40;99.90
51579;DHT22;47998;53.242;6.386;2022-10-15T17:49:38;13.40;99.90
51579;DHT22;47998;53.242;6.386;2022-10-15T17:52:04;13.30;99.90
51579;DHT22;47998;53.242;6.386;2022-10-15T17:54:30;13.30;99.90